Alta Vista, Iowa
Current Conditions -  °F | °C
As of 4:15 AM on Tuesday 27 Jan 2015 (Local Time) from KCCY Reporting Station
Overcast Overcast  
Wind Chill: -3°   Ceiling: 2400
Heat Index:   Visibility: 10mi
Dew Point:   Wind: 8mph
Humidity: 100%   Direction: 340°NNW
Pressure: 30.04"   Gusts: NA
Location:  43.2°N, 92.42°W
Report Text: KCCY 271015Z AUTO 34007KT 10SM OVC024 01/01 A3004 RMK AO2
Loading
Personal Weather Stations






























Interactive Weather Map New forecast layout! Learn more

10-Day Weather Forecast

Advertisements
Track Severe Weather on mobile